Latest Weather Observations for Samuel Hill

IDQ60801

Issued at 12:02 am EST Monday 3 August 2015 (issued every 30 minutes, with the page automatically refreshed every 10 minutes)

About weather observations | Map of weather stations | Latest weather observations for QLD | Other Formats
Station Details ID: 033308 Name: SAMUEL HILL AERO Lat: -22.74 Lon: 150.66 Height: 31.0 m
Data from the previous 72 hours. | See also: Recent months at Samuel Hill
Date/Time
EST
Temp
°C
App
Temp
°C
Dew
Point
Rel
Hum
%
Delta-T
°C
Wind Press
QNH
hPa
Press
MSL
hPa
Rain
since 9 am
mm
Dir
 
Spd
km/h
Gust
km/h
Spd
kts
Gust
kts
03/12:00am 11.9 12.2 11.0 94 0.5 CALM 0 0 0 0 1020.5 1020.5 -
 
Date/Time
EST
Temp
°C
App
Temp
°C
Dew
Point
Rel
Hum
%
Delta-T
°C
Wind Press
QNH
hPa
Press
MSL
hPa
Rain
since 9 am
mm
Dir
 
Spd
km/h
Gust
km/h
Spd
kts
Gust
kts
02/11:30pm 11.7 11.9 10.6 93 0.6 CALM 0 0 0 0 1020.7 1020.7 0.2
02/11:08pm 11.8 12.0 10.5 92 0.7 CALM 0 0 0 0 1020.8 1020.8 0.2
02/11:01pm 11.9 12.1 10.6 92 0.7 CALM 0 0 0 0 1020.8 1020.8 0.2
02/11:00pm 11.9 12.1 10.6 92 0.7 CALM 0 0 0 0 1020.8 1020.8 0.2
02/10:30pm 12.0 12.2 10.7 92 0.7 CALM 0 0 0 0 1021.0 1021.0 0.2
02/10:00pm 12.6 13.0 11.3 92 0.7 CALM 0 0 0 0 1021.1 1021.1 0.2
02/09:30pm 12.8 13.2 11.4 91 0.7 CALM 0 0 0 0 1021.0 1021.0 0.2
02/09:00pm 13.4 14.0 12.0 91 0.7 CALM 0 0 0 0 1021.0 1021.0 0.2
02/08:30pm 14.3 15.2 13.0 92 0.7 CALM 0 0 0 0 1020.9 1020.9 0.2
02/08:00pm 14.4 15.3 12.8 90 0.9 CALM 0 0 0 0 1020.7 1020.7 0.2
02/07:57pm 15.1 16.2 13.6 91 0.8 CALM 0 0 0 0 1020.7 1020.7 0.2
02/07:42pm 15.9 16.2 14.6 92 0.7 E 6 9 3 5 1020.6 1020.6 0.2
02/07:30pm 15.9 17.3 14.4 91 0.9 CALM 0 0 0 0 1020.6 1020.6 0.2
02/07:00pm 15.9 17.0 13.4 85 1.4 CALM 0 0 0 0 1020.5 1020.5 0.2
02/06:30pm 17.3 17.6 14.4 83 1.7 ENE 6 7 3 4 1020.4 1020.4 0.2
02/06:00pm 18.9 19.3 14.8 77 2.4 ENE 6 7 3 4 1020.1 1020.1 0.2
02/05:30pm 20.4 20.4 15.2 72 3.1 ENE 9 13 5 7 1020.1 1020.1 0.2
02/05:00pm 22.0 22.3 14.9 64 4.2 E 7 11 4 6 1019.7 1019.7 0.2
02/04:30pm 22.7 22.2 14.8 61 4.7 ENE 11 17 6 9 1019.6 1019.6 0.2
02/04:00pm 23.4 22.7 15.5 61 4.7 E 13 17 7 9 1019.5 1019.5 0.2
02/03:30pm 23.5 22.6 15.8 62 4.7 E 15 20 8 11 1019.6 1019.6 0.2
02/03:00pm 22.7 22.6 15.0 61 4.6 ENE 9 13 5 7 1019.7 1019.7 0.2
02/02:30pm 22.9 21.8 14.2 58 5.1 ENE 13 19 7 10 1020.0 1020.0 0.2
02/02:00pm 23.2 22.2 14.7 58 5.0 ENE 13 20 7 11 1020.3 1020.3 0.2
02/01:30pm 23.8 23.4 15.3 59 5.1 ESE 11 15 6 8 1020.7 1020.7 0.2
02/01:00pm 23.0 22.5 14.8 60 4.9 NE 11 15 6 8 1021.2 1021.2 0.2
02/12:30pm 23.7 23.6 14.9 57 5.2 E 9 19 5 10 1021.5 1021.5 0.2
02/12:00pm 22.7 22.4 14.5 60 4.8 E 9 15 5 8 1022.0 1022.0 0.2
02/11:30am 22.8 21.8 14.6 60 4.8 E 13 17 7 9 1022.6 1022.6 0.2
02/11:00am 22.2 21.2 14.6 62 4.5 ESE 13 20 7 11 1022.8 1022.8 0.0
02/10:30am 22.0 21.2 15.1 65 4.1 E 13 19 7 10 1022.8 1022.8 0.0
02/10:00am 21.3 22.2 16.7 75 2.8 SSE 7 11 4 6 1022.9 1022.9 0.0
02/09:30am 20.3 21.2 16.5 79 2.3 SSE 7 13 4 7 1023.0 1023.0 0.0
02/09:00am 19.0 19.5 16.6 86 1.4 SSE 9 13 5 7 1022.8 1022.8 0.0
02/08:30am 16.1 16.6 15.0 93 0.6 SSE 6 7 3 4 1022.5 1022.5 0.0
02/08:13am 15.1 15.8 14.5 96 0.3 SSE 4 9 2 5 1022.5 1022.5 0.0
02/08:06am 14.5 15.4 14.0 97 0.3 SSE 2 9 1 5 1022.5 1022.5 0.0
02/08:00am 14.3 14.7 13.8 97 0.3 SSE 4 7 2 4 1022.4 1022.4 0.0
02/07:30am 11.7 11.7 11.2 97 0.3 WSW 2 6 1 3 1022.2 1022.2 0.0
02/07:00am 10.3 10.3 9.7 96 0.3 CALM 0 0 0 0 1022.0 1022.0 0.0
02/06:30am 9.6 8.2 9.0 96 0.3 WSW 6 7 3 4 1021.9 1021.9 0.0
02/06:00am 9.6 9.4 9.0 96 0.3 CALM 0 0 0 0 1021.6 1021.6 0.0
02/05:30am 9.7 9.5 8.9 95 0.4 CALM 0 0 0 0 1021.3 1021.3 0.0
02/05:00am 9.4 9.1 8.6 95 0.4 CALM 0 0 0 0 1021.3 1021.3 0.0
02/04:30am 9.7 9.5 8.9 95 0.4 CALM 0 0 0 0 1021.1 1021.1 0.0
02/04:00am 9.6 9.3 8.7 94 0.4 CALM 0 0 0 0 1021.2 1021.2 0.0
02/03:30am 9.4 9.1 8.5 94 0.4 CALM 0 0 0 0 1021.5 1021.5 0.0
02/03:18am 9.6 9.3 8.7 94 0.4 CALM 0 0 0 0 1021.5 1021.5 0.0
02/03:13am 9.7 9.4 8.8 94 0.4 CALM 0 0 0 0 1021.6 1021.6 0.0
02/03:00am 9.9 9.7 9.0 94 0.4 CALM 0 0 0 0 1021.6 1021.6 0.0
02/02:31am 9.9 9.7 9.0 94 0.4 CALM 0 0 0 0 1021.6 1021.6 0.0
02/02:30am 9.9 9.7 9.0 94 0.4 CALM 0 0 0 0 1021.6 1021.6 0.0
02/02:18am 9.9 9.7 9.0 94 0.4 CALM 0 0 0 0 1021.8 1021.8 0.0
02/02:00am 9.8 9.5 8.7 93 0.5 CALM 0 0 0 0 1021.9 1021.9 0.0
02/01:30am 10.1 9.9 9.2 94 0.4 CALM 0 0 0 0 1022.1 1022.1 0.0
02/01:08am 10.3 10.2 9.4 94 0.4 CALM 0 0 0 0 1022.3 1022.3 0.0
02/01:00am 10.2 10.0 9.1 93 0.5 CALM 0 0 0 0 1022.3 1022.3 0.0
02/12:48am 10.5 10.4 9.6 94 0.5 CALM 0 0 0 0 1022.4 1022.4 0.0
02/12:30am 10.5 10.4 9.6 94 0.5 CALM 0 0 0 0 1022.4 1022.4 0.0
02/12:07am 10.5 10.4 9.4 93 0.5 CALM 0 0 0 0 1022.4 1022.4 0.0
02/12:00am 10.4 10.3 9.3 93 0.5 CALM 0 0 0 0 1022.4 1022.4 0.0
 
Date/Time
EST
Temp
°C
App
Temp
°C
Dew
Point
Rel
Hum
%
Delta-T
°C
Wind Press
QNH
hPa
Press
MSL
hPa
Rain
since 9 am
mm
Dir
 
Spd
km/h
Gust
km/h
Spd
kts
Gust
kts
01/11:52pm 10.5 10.4 9.4 93 0.5 CALM 0 0 0 0 1022.4 1022.4 0.0
01/11:50pm 10.5 10.4 9.4 93 0.5 CALM 0 0 0 0 1022.4 1022.4 0.0
01/11:30pm 10.6 10.5 9.5 93 0.6 CALM 0 0 0 0 1022.5 1022.5 0.0
01/11:14pm 10.7 10.6 9.5 92 0.6 CALM 0 0 0 0 1022.3 1022.3 0.0
01/11:00pm 11.2 11.3 10.1 93 0.6 CALM 0 0 0 0 1022.3 1022.3 0.0
01/10:30pm 11.2 11.2 9.8 91 0.7 CALM 0 0 0 0 1022.4 1022.4 0.0
01/10:00pm 11.6 11.7 10.3 92 0.7 CALM 0 0 0 0 1022.3 1022.3 0.0
01/09:30pm 11.9 12.1 10.5 91 0.7 CALM 0 0 0 0 1022.4 1022.4 0.0
01/09:00pm 12.1 12.3 10.5 90 0.8 CALM 0 0 0 0 1022.4 1022.4 0.0
01/08:30pm 12.7 13.1 11.3 91 0.7 CALM 0 6 0 3 1022.2 1022.2 0.0
01/08:00pm 13.9 13.8 12.1 89 1.0 S 4 7 2 4 1022.0 1022.0 0.0
01/07:30pm 15.2 16.4 13.7 91 0.8 CALM 0 0 0 0 1021.7 1021.7 0.0
01/07:00pm 16.0 16.1 13.8 87 1.2 SE 6 6 3 3 1021.4 1021.4 0.0
01/06:30pm 17.2 17.2 14.3 83 1.7 SE 7 9 4 5 1021.1 1021.1 0.0
01/06:00pm 18.1 17.9 13.6 75 2.5 ESE 7 11 4 6 1021.0 1021.0 0.0
01/05:30pm 19.3 18.6 13.2 68 3.5 ESE 9 13 5 7 1021.0 1021.0 0.0
01/05:00pm 20.6 19.2 12.1 58 4.7 ESE 11 17 6 9 1020.7 1020.7 0.0
01/04:30pm 21.6 19.9 11.3 52 5.7 ESE 11 17 6 9 1020.5 1020.5 0.0
01/04:00pm 22.2 20.4 11.0 49 6.2 ESE 11 19 6 10 1020.5 1020.5 0.0
01/03:30pm 22.6 20.6 11.4 49 6.3 ESE 13 20 7 11 1020.5 1020.5 0.0
01/03:00pm 22.9 20.8 11.3 48 6.5 ESE 13 24 7 13 1020.5 1020.5 0.0
01/02:30pm 23.2 20.9 8.9 40 7.7 E 11 19 6 10 1020.5 1020.5 0.0
01/02:00pm 23.4 20.4 9.4 41 7.6 E 15 22 8 12 1020.7 1020.7 0.0
01/01:30pm 23.4 20.9 9.8 42 7.4 E 13 19 7 10 1021.1 1021.1 0.0
01/01:00pm 23.2 21.6 11.6 48 6.5 ENE 11 20 6 11 1021.4 1021.4 0.0
01/12:30pm 23.4 21.5 13.0 52 6.0 ESE 15 22 8 12 1022.0 1022.0 0.0
01/12:00pm 22.8 20.0 11.5 49 6.3 ENE 17 24 9 13 1022.4 1022.4 0.0
01/11:30am 22.6 20.7 11.7 50 6.1 ESE 13 24 7 13 1022.8 1022.8 0.0
01/11:00am 22.2 20.1 12.5 54 5.5 E 15 26 8 14 1023.1 1023.1 0.0
01/10:30am 20.8 20.3 14.9 69 3.5 SE 11 19 6 10 1023.3 1023.3 0.0
01/10:00am 20.4 20.2 15.8 75 2.7 SSE 11 17 6 9 1023.5 1023.5 0.0
01/09:30am 19.8 20.5 17.0 84 1.7 SSE 9 15 5 8 1023.5 1023.5 0.0
01/09:05am 17.7 18.1 16.2 91 0.9 SSE 9 15 5 8 1023.3 1023.3 0.0
01/09:00am 17.3 17.7 16.2 93 0.6 SSE 9 15 5 8 1023.3 1023.3 0.0
01/08:52am 16.5 17.3 15.9 96 0.4 SE 6 9 3 5 1023.3 1023.3 0.0
01/08:30am 14.4 15.3 13.9 97 0.3 S 2 7 1 4 1023.2 1023.2 0.0
01/08:00am 13.2 12.9 12.7 97 0.3 SSW 6 7 3 4 1023.0 1023.0 0.0
01/07:30am 12.3 11.7 11.8 97 0.3 WSW 6 7 3 4 1022.6 1022.6 0.0
01/07:00am 11.5 10.7 11.0 97 0.3 WSW 6 9 3 5 1022.3 1022.3 0.0
01/06:30am 11.2 10.3 10.7 97 0.3 SW 6 9 3 5 1022.1 1022.1 0.0
01/06:00am 10.6 9.5 10.0 96 0.3 SSW 6 7 3 4 1021.9 1021.9 0.0
01/05:30am 10.0 9.9 9.4 96 0.3 CALM 0 0 0 0 1021.6 1021.6 0.0
01/05:00am 9.8 9.6 9.0 95 0.4 CALM 0 0 0 0 1021.4 1021.4 0.0
01/04:30am 9.8 9.6 9.0 95 0.4 CALM 0 0 0 0 1021.2 1021.2 0.0
01/04:00am 9.5 9.2 8.7 95 0.4 CALM 0 0 0 0 1021.1 1021.1 0.0
01/03:30am 9.5 9.2 8.6 94 0.4 CALM 0 0 0 0 1021.1 1021.1 0.0
01/03:00am 9.5 9.2 8.6 94 0.4 CALM 0 0 0 0 1021.2 1021.2 0.0
01/02:30am 9.5 9.2 8.6 94 0.4 CALM 0 0 0 0 1021.2 1021.2 0.0
01/02:25am 9.4 9.1 8.5 94 0.4 CALM 0 0 0 0 1021.2 1021.2 0.0
01/02:00am 9.6 9.3 8.7 94 0.4 CALM 0 0 0 0 1021.4 1021.4 0.0
01/01:59am 9.7 9.4 8.8 94 0.4 CALM 0 0 0 0 1021.4 1021.4 0.0
01/01:30am 9.6 9.3 8.7 94 0.4 CALM 0 0 0 0 1021.7 1021.7 0.0
01/01:00am 9.8 9.5 8.7 93 0.5 CALM 0 0 0 0 1021.8 1021.8 0.0
01/12:30am 9.8 9.5 8.7 93 0.5 CALM 0 0 0 0 1021.9 1021.9 0.0
01/12:00am 10.0 9.8 8.9 93 0.5 CALM 0 0 0 0 1022.0 1022.0 0.0
 
Date/Time
EST
Temp
°C
App
Temp
°C
Dew
Point
Rel
Hum
%
Delta-T
°C
Wind Press
QNH
hPa
Press
MSL
hPa
Rain
since 9 am
mm
Dir
 
Spd
km/h
Gust
km/h
Spd
kts
Gust
kts
31/11:30pm 10.4 10.3 9.3 93 0.5 CALM 0 0 0 0 1022.0 1022.0 0.0
31/11:00pm 10.3 10.1 9.2 93 0.5 CALM 0 0 0 0 1022.2 1022.2 0.0
31/10:30pm 10.8 10.7 9.6 92 0.6 CALM 0 0 0 0 1022.0 1022.0 0.0
31/10:24pm 10.8 10.7 9.6 92 0.6 CALM 0 0 0 0 1022.0 1022.0 0.0
31/10:07pm 10.8 10.7 9.6 92 0.6 CALM 0 0 0 0 1021.9 1021.9 0.0
31/10:06pm 10.8 10.7 9.6 92 0.6 CALM 0 0 0 0 1021.9 1021.9 0.0
31/10:00pm 11.1 11.1 9.9 92 0.6 CALM 0 0 0 0 1021.8 1021.8 0.0
31/09:51pm 11.0 11.0 9.8 92 0.6 CALM 0 0 0 0 1021.7 1021.7 0.0
31/09:30pm 11.3 11.3 9.9 91 0.7 CALM 0 0 0 0 1021.7 1021.7 0.0
31/09:00pm 11.7 11.8 10.1 90 0.8 CALM 0 0 0 0 1021.5 1021.5 0.0
31/08:30pm 12.5 12.8 10.9 90 0.8 CALM 0 0 0 0 1021.3 1021.3 0.0
31/08:00pm 13.0 13.4 11.1 88 1.0 CALM 0 0 0 0 1021.2 1021.2 0.0
31/07:30pm 13.9 13.3 11.8 87 1.1 SW 6 6 3 3 1020.9 1020.9 0.0
31/07:00pm 14.5 13.9 12.4 87 1.1 SW 7 9 4 5 1020.7 1020.7 0.0
31/06:30pm 15.3 15.2 12.2 82 1.7 E 4 6 2 3 1020.6 1020.6 0.0
31/06:00pm 17.4 16.9 12.5 73 2.7 E 7 9 4 5 1020.5 1020.5 0.0
31/05:30pm 19.5 19.2 12.7 65 3.8 E 6 7 3 4 1020.4 1020.4 0.0
31/05:00pm 20.8 20.0 12.8 60 4.5 SE 9 11 5 6 1020.4 1020.4 0.0
31/04:30pm 21.5 19.8 12.4 56 5.1 ESE 13 17 7 9 1020.2 1020.2 0.0
31/04:00pm 21.9 19.8 12.5 55 5.3 E 15 20 8 11 1020.2 1020.2 0.0
31/03:30pm 22.5 20.3 12.2 52 5.8 E 15 20 8 11 1020.3 1020.3 0.0
31/03:00pm 22.9 20.9 12.8 53 5.8 SE 15 22 8 12 1020.4 1020.4 0.0
31/02:30pm 23.0 21.3 12.6 52 5.9 SE 13 20 7 11 1020.6 1020.6 0.0
31/02:00pm 23.3 21.7 12.9 52 6.0 ESE 13 19 7 10 1020.9 1020.9 0.0
31/01:30pm 23.0 20.6 12.6 52 5.9 SE 17 28 9 15 1021.2 1021.2 0.0
31/01:00pm 22.3 20.4 13.1 56 5.3 ESE 15 26 8 14 1021.6 1021.6 0.0
31/12:30pm 22.8 21.2 13.8 57 5.2 ESE 15 24 8 13 1022.0 1022.0 0.0
31/12:00pm 23.2 22.4 16.0 64 4.3 SSE 15 20 8 11 1022.7 1022.7 0.0
31/11:30am 22.0 20.7 14.9 64 4.2 SE 15 22 8 12 1023.1 1023.1 0.0
31/11:00am 21.2 20.4 15.1 68 3.6 SSE 13 19 7 10 1023.5 1023.5 0.0
31/10:30am 21.1 21.4 16.9 77 2.6 SSW 11 17 6 9 1023.9 1023.9 0.0
31/10:00am 19.6 18.9 15.3 76 2.5 SSE 13 20 7 11 1024.2 1024.2 0.0
31/09:30am 18.4 17.5 14.9 80 2.0 SSE 13 20 7 11 1024.3 1024.3 0.0
31/09:00am 18.0 17.8 15.6 86 1.4 SE 11 19 6 10 1024.0 1024.0 0.6
31/08:40am 17.2 16.7 14.8 86 1.4 SSE 11 17 6 9 1023.7 1023.7 0.6
31/08:30am 17.4 17.2 15.6 89 1.1 SSE 11 15 6 8 1023.4 1023.4 0.6
31/08:00am 16.4 15.6 15.1 92 0.7 SE 13 17 7 9 1023.0 1023.0 0.6
31/07:30am 15.3 14.8 14.8 97 0.3 SSE 11 13 6 7 1023.0 1023.0 0.6
31/07:25am 15.1 14.9 14.6 97 0.3 SSE 9 13 5 7 1023.0 1023.0 0.6
31/07:00am 14.1 13.9 13.5 96 0.3 SE 7 9 4 5 1022.9 1022.9 0.6
31/06:30am 14.0 13.7 13.4 96 0.3 S 7 9 4 5 1022.7 1022.7 0.6
31/06:00am 13.6 14.5 13.0 96 0.3 CALM 0 0 0 0 1022.2 1022.2 0.6
31/05:41am 13.7 14.7 13.1 96 0.3 CALM 0 0 0 0 1022.0 1022.0 0.6
31/05:30am 13.6 14.2 13.0 96 0.3 WSW 2 6 1 3 1021.8 1021.8 0.4
31/05:03am 13.2 13.3 12.6 96 0.3 S 4 9 2 5 1021.5 1021.5 0.4
31/05:00am 13.4 13.2 12.9 97 0.3 S 6 9 3 5 1021.5 1021.5 0.4
31/04:57am 14.0 13.8 13.5 97 0.3 S 7 9 4 5 1021.5 1021.5 0.4
31/04:35am 13.0 12.4 12.4 96 0.3 SSW 7 9 4 5 1021.7 1021.7 0.4
31/04:30am 13.0 12.4 12.4 96 0.3 SSW 7 9 4 5 1021.7 1021.7 0.4
31/04:21am 13.3 12.4 12.7 96 0.3 S 9 9 5 5 1021.7 1021.7 0.4
31/04:00am 13.9 13.3 13.4 97 0.3 S 9 11 5 6 1021.9 1021.9 0.4
31/03:30am 13.5 13.1 12.9 96 0.3 S 7 9 4 5 1022.0 1022.0 0.4
31/03:00am 13.7 13.0 13.1 96 0.3 ESE 9 11 5 6 1022.1 1022.1 0.4
31/02:34am 12.2 11.4 11.6 96 0.3 ESE 7 9 4 5 1022.0 1022.0 0.4
31/02:30am 12.6 11.9 12.0 96 0.3 SE 7 9 4 5 1022.0 1022.0 0.4
31/02:00am 12.7 12.0 12.1 96 0.3 SSE 7 9 4 5 1022.2 1022.2 0.4
31/01:30am 11.4 10.3 10.5 94 0.5 SSE 7 9 4 5 1022.4 1022.4 0.4
31/01:00am 11.6 11.8 10.7 94 0.5 CALM 0 0 0 0 1022.8 1022.8 0.4
31/12:30am 12.0 12.4 11.1 94 0.5 CALM 0 0 0 0 1023.2 1023.2 0.4
31/12:29am 12.1 12.5 11.2 94 0.5 CALM 0 0 0 0 1023.2 1023.2 0.4

Other Formats:

Comma delimited format used in spreadsheet applications
http://www.bom.gov.au/fwo/IDQ60801/IDQ60801.94370.axf

JavaScript Object Notation format (JSON) in row-major order
http://www.bom.gov.au/fwo/IDQ60801/IDQ60801.94370.json